sensor_id;sensor_type;location;lat;lon;timestamp;pressure;altitude;pressure_sealevel;temperature
19102;BMP280;9683;49.028;12.064;2023-07-22T00:01:51;97170.47;;;19.00
19102;BMP280;9683;49.028;12.064;2023-07-22T00:04:17;97167.28;;;18.98
19102;BMP280;9683;49.028;12.064;2023-07-22T00:06:44;97169.97;;;18.98
19102;BMP280;9683;49.028;12.064;2023-07-22T00:09:10;97168.91;;;18.94
19102;BMP280;9683;49.028;12.064;2023-07-22T00:11:37;97171.88;;;18.92
19102;BMP280;9683;49.028;12.064;2023-07-22T00:14:03;97163.81;;;18.87
19102;BMP280;9683;49.028;12.064;2023-07-22T00:16:31;97167.56;;;18.91
19102;BMP280;9683;49.028;12.064;2023-07-22T00:19:00;97178.63;;;18.90
19102;BMP280;9683;49.028;12.064;2023-07-22T00:21:27;97178.38;;;18.86
19102;BMP280;9683;49.028;12.064;2023-07-22T00:23:54;97170.59;;;18.80
19102;BMP280;9683;49.028;12.064;2023-07-22T00:26:21;97171.41;;;18.80
19102;BMP280;9683;49.028;12.064;2023-07-22T00:28:47;97173.56;;;18.78
19102;BMP280;9683;49.028;12.064;2023-07-22T00:31:14;97170.84;;;18.78
19102;BMP280;9683;49.028;12.064;2023-07-22T00:33:40;97166.34;;;18.68
19102;BMP280;9683;49.028;12.064;2023-07-22T00:36:08;97162.59;;;18.64
19102;BMP280;9683;49.028;12.064;2023-07-22T00:38:35;97171.50;;;18.60
19102;BMP280;9683;49.028;12.064;2023-07-22T00:41:01;97169.63;;;18.55
19102;BMP280;9683;49.028;12.064;2023-07-22T00:43:30;97162.34;;;18.51
19102;BMP280;9683;49.028;12.064;2023-07-22T00:45:57;97160.16;;;18.48
19102;BMP280;9683;49.028;12.064;2023-07-22T00:48:23;97159.66;;;18.46
19102;BMP280;9683;49.028;12.064;2023-07-22T00:50:50;97144.59;;;18.35
19102;BMP280;9683;49.028;12.064;2023-07-22T00:53:18;97147.00;;;18.36
19102;BMP280;9683;49.028;12.064;2023-07-22T00:55:45;97146.50;;;18.34
19102;BMP280;9683;49.028;12.064;2023-07-22T00:58:12;97148.38;;;18.28
19102;BMP280;9683;49.028;12.064;2023-07-22T01:00:38;97138.69;;;18.27
19102;BMP280;9683;49.028;12.064;2023-07-22T01:03:05;97112.38;;;18.09
19102;BMP280;9683;49.028;12.064;2023-07-22T01:05:34;97135.97;;;18.32
19102;BMP280;9683;49.028;12.064;2023-07-22T01:08:02;97138.66;;;18.32
19102;BMP280;9683;49.028;12.064;2023-07-22T01:10:30;97133.03;;;18.34
19102;BMP280;9683;49.028;12.064;2023-07-22T01:12:57;97132.75;;;18.30
19102;BMP280;9683;49.028;12.064;2023-07-22T01:15:24;97133.84;;;18.29
19102;BMP280;9683;49.028;12.064;2023-07-22T01:17:51;97136.28;;;18.26
19102;BMP280;9683;49.028;12.064;2023-07-22T01:20:21;97116.38;;;18.12
19102;BMP280;9683;49.028;12.064;2023-07-22T01:22:51;97125.53;;;18.16
19102;BMP280;9683;49.028;12.064;2023-07-22T01:25:19;97124.47;;;18.12
19102;BMP280;9683;49.028;12.064;2023-07-22T01:27:47;97144.09;;;18.22
19102;BMP280;9683;49.028;12.064;2023-07-22T01:30:13;97145.19;;;18.16
19102;BMP280;9683;49.028;12.064;2023-07-22T01:32:40;97141.44;;;18.07
19102;BMP280;9683;49.028;12.064;2023-07-22T01:35:08;97139.31;;;17.99
19102;BMP280;9683;49.028;12.064;2023-07-22T01:37:34;97150.34;;;17.98
19102;BMP280;9683;49.028;12.064;2023-07-22T01:40:03;97141.44;;;17.97
19102;BMP280;9683;49.028;12.064;2023-07-22T01:42:37;97149.03;;;17.95
19102;BMP280;9683;49.028;12.064;2023-07-22T01:45:04;97144.16;;;17.97
19102;BMP280;9683;49.028;12.064;2023-07-22T01:47:33;97145.50;;;17.95
19102;BMP280;9683;49.028;12.064;2023-07-22T01:49:59;97147.66;;;17.98
19102;BMP280;9683;49.028;12.064;2023-07-22T01:52:26;97137.44;;;17.95
19102;BMP280;9683;49.028;12.064;2023-07-22T01:54:52;97150.34;;;17.98
19102;BMP280;9683;49.028;12.064;2023-07-22T01:57:20;97133.69;;;17.91
19102;BMP280;9683;49.028;12.064;2023-07-22T01:59:47;97149.03;;;17.95
19102;BMP280;9683;49.028;12.064;2023-07-22T02:02:14;97142.03;;;17.84
19102;BMP280;9683;49.028;12.064;2023-07-22T02:04:40;97151.19;;;17.88
19102;BMP280;9683;49.028;12.064;2023-07-22T02:07:07;97153.06;;;17.88
19102;BMP280;9683;49.028;12.064;2023-07-22T02:09:34;97152.81;;;17.84
19102;BMP280;9683;49.028;12.064;2023-07-22T02:12:01;97155.78;;;17.82
19102;BMP280;9683;49.028;12.064;2023-07-22T02:14:29;97161.69;;;17.84
19102;BMP280;9683;49.028;12.064;2023-07-22T02:16:55;97163.59;;;17.84
19102;BMP280;9683;49.028;12.064;2023-07-22T02:19:22;97153.06;;;17.77
19102;BMP280;9683;49.028;12.064;2023-07-22T02:21:49;97153.88;;;17.78
19102;BMP280;9683;49.028;12.064;2023-07-22T02:24:15;97151.75;;;17.75
19102;BMP280;9683;49.028;12.064;2023-07-22T02:26:42;97162.78;;;17.73
19102;BMP280;9683;49.028;12.064;2023-07-22T02:29:08;97159.00;;;17.69
19102;BMP280;9683;49.028;12.064;2023-07-22T02:31:36;97159.81;;;17.70
19102;BMP280;9683;49.028;12.064;2023-07-22T02:34:03;97152.03;;;17.63
19102;BMP280;9683;49.028;12.064;2023-07-22T02:36:29;97160.91;;;17.69
19102;BMP280;9683;49.028;12.064;2023-07-22T02:38:56;97157.66;;;17.72
19102;BMP280;9683;49.028;12.064;2023-07-22T02:41:22;97139.63;;;17.57
19102;BMP280;9683;49.028;12.064;2023-07-22T02:43:49;97160.34;;;17.72
19102;BMP280;9683;49.028;12.064;2023-07-22T02:46:15;97161.44;;;17.71
19102;BMP280;9683;49.028;12.064;2023-07-22T02:48:43;97152.25;;;17.72
19102;BMP280;9683;49.028;12.064;2023-07-22T02:51:09;97154.44;;;17.70
19102;BMP280;9683;49.028;12.064;2023-07-22T02:53:37;97155.50;;;17.69
19102;BMP280;9683;49.028;12.064;2023-07-22T02:56:04;97159.28;;;17.73
19102;BMP280;9683;49.028;12.064;2023-07-22T02:58:32;97161.44;;;17.71
19102;BMP280;9683;49.028;12.064;2023-07-22T03:00:58;97162.78;;;17.68
19102;BMP280;9683;49.028;12.064;2023-07-22T03:03:25;97168.44;;;17.67
19102;BMP280;9683;49.028;12.064;2023-07-22T03:05:53;97160.38;;;17.62
19102;BMP280;9683;49.028;12.064;2023-07-22T03:08:19;97172.19;;;17.61
19102;BMP280;9683;49.028;12.064;2023-07-22T03:10:46;97155.50;;;17.49
19102;BMP280;9683;49.028;12.064;2023-07-22T03:13:14;97160.88;;;17.49
19102;BMP280;9683;49.028;12.064;2023-07-22T03:15:40;97159.78;;;17.45
19102;BMP280;9683;49.028;12.064;2023-07-22T03:18:07;97156.28;;;17.39
19102;BMP280;9683;49.028;12.064;2023-07-22T03:20:35;97159.53;;;17.36
19102;BMP280;9683;49.028;12.064;2023-07-22T03:23:03;97161.97;;;17.37
19102;BMP280;9683;49.028;12.064;2023-07-22T03:25:31;97172.97;;;17.36
19102;BMP280;9683;49.028;12.064;2023-07-22T03:27:59;97173.78;;;17.31
19102;BMP280;9683;49.028;12.064;2023-07-22T03:30:26;97171.63;;;17.23
19102;BMP280;9683;49.028;12.064;2023-07-22T03:32:53;97188.53;;;17.14
19102;BMP280;9683;49.028;12.064;2023-07-22T03:35:20;97186.66;;;17.14
19102;BMP280;9683;49.028;12.064;2023-07-22T03:37:46;97178.59;;;17.14
19102;BMP280;9683;49.028;12.064;2023-07-22T03:40:14;97193.13;;;17.18
19102;BMP280;9683;49.028;12.064;2023-07-22T03:42:44;97187.22;;;17.16
19102;BMP280;9683;49.028;12.064;2023-07-22T03:45:11;97190.69;;;17.12
19102;BMP280;9683;49.028;12.064;2023-07-22T03:47:38;97194.72;;;17.09
19102;BMP280;9683;49.028;12.064;2023-07-22T03:50:06;97189.63;;;17.08
19102;BMP280;9683;49.028;12.064;2023-07-22T03:52:32;97187.19;;;16.96
19102;BMP280;9683;49.028;12.064;2023-07-22T03:54:59;97200.63;;;17.01
19102;BMP280;9683;49.028;12.064;2023-07-22T03:57:27;97211.38;;;17.01
19102;BMP280;9683;49.028;12.064;2023-07-22T03:59:55;97206.28;;;17.00
19102;BMP280;9683;49.028;12.064;2023-07-22T04:02:22;97207.88;;;17.01
19102;BMP280;9683;49.028;12.064;2023-07-22T04:04:49;97207.06;;;16.95
19102;BMP280;9683;49.028;12.064;2023-07-22T04:07:16;97216.75;;;17.06
19102;BMP280;9683;49.028;12.064;2023-07-22T04:09:43;97218.38;;;17.07
19102;BMP280;9683;49.028;12.064;2023-07-22T04:12:10;97217.59;;;17.07
19102;BMP280;9683;49.028;12.064;2023-07-22T04:14:38;97224.03;;;17.11
19102;BMP280;9683;49.028;12.064;2023-07-22T04:17:05;97214.09;;;17.11
19102;BMP280;9683;49.028;12.064;2023-07-22T04:19:31;97196.84;;;17.02
19102;BMP280;9683;49.028;12.064;2023-07-22T04:21:58;97197.41;;;17.04
19102;BMP280;9683;49.028;12.064;2023-07-22T04:24:29;97211.94;;;17.13
19102;BMP280;9683;49.028;12.064;2023-07-22T04:26:55;97224.06;;;17.21
19102;BMP280;9683;49.028;12.064;2023-07-22T04:29:22;97221.38;;;17.21
19102;BMP280;9683;49.028;12.064;2023-07-22T04:31:50;97221.91;;;17.23
19102;BMP280;9683;49.028;12.064;2023-07-22T04:34:16;97216.00;;;17.21
19102;BMP280;9683;49.028;12.064;2023-07-22T04:36:43;97223.56;;;17.29
19102;BMP280;9683;49.028;12.064;2023-07-22T04:39:10;97219.78;;;17.30
19102;BMP280;9683;49.028;12.064;2023-07-22T04:41:37;97218.44;;;17.27
19102;BMP280;9683;49.028;12.064;2023-07-22T04:44:04;97219.78;;;17.30
19102;BMP280;9683;49.028;12.064;2023-07-22T04:46:30;97221.38;;;17.26
19102;BMP280;9683;49.028;12.064;2023-07-22T04:48:58;97228.66;;;17.25
19102;BMP280;9683;49.028;12.064;2023-07-22T04:51:25;97225.16;;;17.25
19102;BMP280;9683;49.028;12.064;2023-07-22T04:53:52;97226.22;;;17.24
19102;BMP280;9683;49.028;12.064;2023-07-22T04:56:19;97216.25;;;17.14
19102;BMP280;9683;49.028;12.064;2023-07-22T04:58:46;97226.75;;;17.26
19102;BMP280;9683;49.028;12.064;2023-07-22T05:01:15;97227.56;;;17.26
19102;BMP280;9683;49.028;12.064;2023-07-22T05:03:42;97228.13;;;17.28
19102;BMP280;9683;49.028;12.064;2023-07-22T05:06:10;97231.09;;;17.32
19102;BMP280;9683;49.028;12.064;2023-07-22T05:08:37;97231.34;;;17.30
19102;BMP280;9683;49.028;12.064;2023-07-22T05:11:04;97214.38;;;17.20
19102;BMP280;9683;49.028;12.064;2023-07-22T05:13:30;97231.91;;;17.32
19102;BMP280;9683;49.028;12.064;2023-07-22T05:15:57;97221.66;;;17.34
19102;BMP280;9683;49.028;12.064;2023-07-22T05:18:23;97225.72;;;17.37
19102;BMP280;9683;49.028;12.064;2023-07-22T05:20:50;97229.22;;;17.37
19102;BMP280;9683;49.028;12.064;2023-07-22T05:23:18;97233.25;;;17.40
19102;BMP280;9683;49.028;12.064;2023-07-22T05:25:50;97225.44;;;17.38
19102;BMP280;9683;49.028;12.064;2023-07-22T05:28:17;97235.13;;;17.39
19102;BMP280;9683;49.028;12.064;2023-07-22T05:30:43;97233.81;;;17.42
19102;BMP280;9683;49.028;12.064;2023-07-22T05:33:10;97237.03;;;17.44
19102;BMP280;9683;49.028;12.064;2023-07-22T05:35:36;97233.53;;;17.49
19102;BMP280;9683;49.028;12.064;2023-07-22T05:38:03;97229.78;;;17.55
19102;BMP280;9683;49.028;12.064;2023-07-22T05:40:31;97233.59;;;17.59
19102;BMP280;9683;49.028;12.064;2023-07-22T05:42:58;97237.06;;;17.54
19102;BMP280;9683;49.028;12.064;2023-07-22T05:45:24;97236.50;;;17.52
19102;BMP280;9683;49.028;12.064;2023-07-22T05:47:51;97235.97;;;17.50
19102;BMP280;9683;49.028;12.064;2023-07-22T05:50:17;97232.19;;;17.51
19102;BMP280;9683;49.028;12.064;2023-07-22T05:52:44;97232.72;;;17.53
19102;BMP280;9683;49.028;12.064;2023-07-22T05:55:11;97234.66;;;17.58
19102;BMP280;9683;49.028;12.064;2023-07-22T05:57:39;97235.72;;;17.62
19102;BMP280;9683;49.028;12.064;2023-07-22T06:00:06;97241.66;;;17.64
19102;BMP280;9683;49.028;12.064;2023-07-22T06:02:34;97241.94;;;17.67
19102;BMP280;9683;49.028;12.064;2023-07-22T06:05:00;97246.50;;;17.72
19102;BMP280;9683;49.028;12.064;2023-07-22T06:07:27;97238.72;;;17.70
19102;BMP280;9683;49.028;12.064;2023-07-22T06:09:54;97255.13;;;17.79
19102;BMP280;9683;49.028;12.064;2023-07-22T06:12:20;97258.09;;;17.82
19102;BMP280;9683;49.028;12.064;2023-07-22T06:14:48;97257.53;;;17.85
19102;BMP280;9683;49.028;12.064;2023-07-22T06:17:15;97251.34;;;17.85
19102;BMP280;9683;49.028;12.064;2023-07-22T06:19:41;97252.69;;;17.98
19102;BMP280;9683;49.028;12.064;2023-07-22T06:22:08;97260.78;;;18.08
19102;BMP280;9683;49.028;12.064;2023-07-22T06:24:35;97270.47;;;18.19
19102;BMP280;9683;49.028;12.064;2023-07-22T06:27:02;97268.03;;;18.27
19102;BMP280;9683;49.028;12.064;2023-07-22T06:29:28;97267.22;;;18.37
19102;BMP280;9683;49.028;12.064;2023-07-22T06:31:56;97267.22;;;18.47
19102;BMP280;9683;49.028;12.064;2023-07-22T06:34:23;97262.06;;;18.51
19102;BMP280;9683;49.028;12.064;2023-07-22T06:36:49;97262.34;;;18.59
19102;BMP280;9683;49.028;12.064;2023-07-22T06:39:16;97262.06;;;18.61
19102;BMP280;9683;49.028;12.064;2023-07-22T06:41:42;97269.63;;;18.64
19102;BMP280;9683;49.028;12.064;2023-07-22T06:44:09;97265.81;;;18.70
19102;BMP280;9683;49.028;12.064;2023-07-22T06:46:35;97267.44;;;18.76
19102;BMP280;9683;49.028;12.064;2023-07-22T06:49:03;97259.03;;;18.83
19102;BMP280;9683;49.028;12.064;2023-07-22T06:51:30;97267.63;;;18.95
19102;BMP280;9683;49.028;12.064;2023-07-22T06:53:56;97273.81;;;19.00
19102;BMP280;9683;49.028;12.064;2023-07-22T06:56:23;97261.41;;;18.99
19102;BMP280;9683;49.028;12.064;2023-07-22T06:58:51;97273.78;;;19.10
19102;BMP280;9683;49.028;12.064;2023-07-22T07:01:18;97269.94;;;19.16
19102;BMP280;9683;49.028;12.064;2023-07-22T07:03:44;97265.59;;;19.26
19102;BMP280;9683;49.028;12.064;2023-07-22T07:06:12;97275.78;;;19.39
19102;BMP280;9683;49.028;12.064;2023-07-22T07:08:39;97268.19;;;19.41
19102;BMP280;9683;49.028;12.064;2023-07-22T07:11:05;97272.78;;;19.40
19102;BMP280;9683;49.028;12.064;2023-07-22T07:13:32;97275.22;;;19.42
19102;BMP280;9683;49.028;12.064;2023-07-22T07:16:22;97278.75;;;19.47
19102;BMP280;9683;49.028;12.064;2023-07-22T07:18:49;97271.97;;;19.50
19102;BMP280;9683;49.028;12.064;2023-07-22T07:21:17;97269.22;;;19.55
19102;BMP280;9683;49.028;12.064;2023-07-22T07:23:44;97262.72;;;19.61
19102;BMP280;9683;49.028;12.064;2023-07-22T07:26:11;97272.94;;;19.69
19102;BMP280;9683;49.028;12.064;2023-07-22T07:28:37;97274.81;;;19.74
19102;BMP280;9683;49.028;12.064;2023-07-22T07:31:04;97278.25;;;19.79
19102;BMP280;9683;49.028;12.064;2023-07-22T07:33:31;97283.91;;;19.83
19102;BMP280;9683;49.028;12.064;2023-07-22T07:35:57;97282.81;;;19.84
19102;BMP280;9683;49.028;12.064;2023-07-22T07:38:25;97283.13;;;19.82
19102;BMP280;9683;49.028;12.064;2023-07-22T07:40:52;97286.59;;;19.83
19102;BMP280;9683;49.028;12.064;2023-07-22T07:43:19;97284.69;;;19.83
19102;BMP280;9683;49.028;12.064;2023-07-22T07:45:45;97271.72;;;19.85
19102;BMP280;9683;49.028;12.064;2023-07-22T07:48:12;97285.25;;;19.85
19102;BMP280;9683;49.028;12.064;2023-07-22T07:50:39;97291.47;;;19.86
19102;BMP280;9683;49.028;12.064;2023-07-22T07:53:05;97276.59;;;19.83
19102;BMP280;9683;49.028;12.064;2023-07-22T07:55:33;97279.72;;;20.00
19102;BMP280;9683;49.028;12.064;2023-07-22T07:58:00;97286.41;;;20.08
19102;BMP280;9683;49.028;12.064;2023-07-22T08:00:26;97288.78;;;20.14
19102;BMP280;9683;49.028;12.064;2023-07-22T08:02:53;97287.38;;;20.22
19102;BMP280;9683;49.028;12.064;2023-07-22T08:05:20;97292.44;;;20.29
19102;BMP280;9683;49.028;12.064;2023-07-22T08:07:47;97278.91;;;20.29
19102;BMP280;9683;49.028;12.064;2023-07-22T08:10:13;97279.69;;;20.39
19102;BMP280;9683;49.028;12.064;2023-07-22T08:12:41;97283.97;;;20.45
19102;BMP280;9683;49.028;12.064;2023-07-22T08:15:08;97280.16;;;20.46
19102;BMP280;9683;49.028;12.064;2023-07-22T08:17:35;97284.13;;;20.54
19102;BMP280;9683;49.028;12.064;2023-07-22T08:20:01;97283.53;;;20.62
19102;BMP280;9683;49.028;12.064;2023-07-22T08:22:29;97283.94;;;20.74
19102;BMP280;9683;49.028;12.064;2023-07-22T08:24:56;97280.59;;;20.82
19102;BMP280;9683;49.028;12.064;2023-07-22T08:27:22;97285.38;;;20.90
19102;BMP280;9683;49.028;12.064;2023-07-22T08:29:51;97273.91;;;20.98
19102;BMP280;9683;49.028;12.064;2023-07-22T08:32:17;97270.84;;;21.05
19102;BMP280;9683;49.028;12.064;2023-07-22T08:34:44;97259.78;;;21.01
19102;BMP280;9683;49.028;12.064;2023-07-22T08:37:10;97273.25;;;21.07
19102;BMP280;9683;49.028;12.064;2023-07-22T08:39:38;97268.34;;;21.09
19102;BMP280;9683;49.028;12.064;2023-07-22T08:42:05;97271.25;;;21.17
19102;BMP280;9683;49.028;12.064;2023-07-22T08:44:33;97266.31;;;21.24
19102;BMP280;9683;49.028;12.064;2023-07-22T08:47:03;97270.75;;;21.34
19102;BMP280;9683;49.028;12.064;2023-07-22T08:49:31;97276.94;;;21.39
19102;BMP280;9683;49.028;12.064;2023-07-22T08:51:59;97274.44;;;21.43
19102;BMP280;9683;49.028;12.064;2023-07-22T08:54:27;97270.84;;;21.47
19102;BMP280;9683;49.028;12.064;2023-07-22T08:56:54;97270.78;;;21.53
19102;BMP280;9683;49.028;12.064;2023-07-22T08:59:21;97281.34;;;21.54
19102;BMP280;9683;49.028;12.064;2023-07-22T09:01:48;97274.59;;;21.52
19102;BMP280;9683;49.028;12.064;2023-07-22T09:04:18;97261.63;;;21.48
19102;BMP280;9683;49.028;12.064;2023-07-22T09:06:45;97273.50;;;21.53
19102;BMP280;9683;49.028;12.064;2023-07-22T09:09:12;97264.72;;;21.61
19102;BMP280;9683;49.028;12.064;2023-07-22T09:11:39;97262.13;;;21.69
19102;BMP280;9683;49.028;12.064;2023-07-22T09:14:06;97263.16;;;21.73
19102;BMP280;9683;49.028;12.064;2023-07-22T09:16:33;97263.09;;;21.78
19102;BMP280;9683;49.028;12.064;2023-07-22T09:18:59;97266.41;;;21.75
19102;BMP280;9683;49.028;12.064;2023-07-22T09:21:27;97266.81;;;21.64
19102;BMP280;9683;49.028;12.064;2023-07-22T09:23:54;97273.38;;;21.63
19102;BMP280;9683;49.028;12.064;2023-07-22T09:26:20;97266.47;;;21.70
19102;BMP280;9683;49.028;12.064;2023-07-22T09:28:49;97259.66;;;21.73
19102;BMP280;9683;49.028;12.064;2023-07-22T09:31:15;97250.28;;;21.65
19102;BMP280;9683;49.028;12.064;2023-07-22T09:33:42;97259.81;;;21.63
19102;BMP280;9683;49.028;12.064;2023-07-22T09:36:09;97268.16;;;21.47
19102;BMP280;9683;49.028;12.064;2023-07-22T09:38:38;97256.22;;;21.48
19102;BMP280;9683;49.028;12.064;2023-07-22T09:41:05;97258.53;;;21.55
19102;BMP280;9683;49.028;12.064;2023-07-22T09:43:36;97259.00;;;21.62
19102;BMP280;9683;49.028;12.064;2023-07-22T09:46:07;97261.13;;;21.65
19102;BMP280;9683;49.028;12.064;2023-07-22T09:48:44;97256.72;;;21.69
19102;BMP280;9683;49.028;12.064;2023-07-22T09:51:12;97257.09;;;21.63
19102;BMP280;9683;49.028;12.064;2023-07-22T09:53:45;97245.06;;;21.69
19102;BMP280;9683;49.028;12.064;2023-07-22T09:56:12;97257.75;;;21.73
19102;BMP280;9683;49.028;12.064;2023-07-22T09:58:39;97256.59;;;21.79
19102;BMP280;9683;49.028;12.064;2023-07-22T10:01:07;97256.47;;;21.84
19102;BMP280;9683;49.028;12.064;2023-07-22T10:03:37;97248.94;;;21.81
19102;BMP280;9683;49.028;12.064;2023-07-22T10:06:05;97247.56;;;21.84
19102;BMP280;9683;49.028;12.064;2023-07-22T10:08:34;97248.66;;;21.83
19102;BMP280;9683;49.028;12.064;2023-07-22T10:11:03;97244.25;;;21.87
19102;BMP280;9683;49.028;12.064;2023-07-22T10:13:32;97239.50;;;21.98
19102;BMP280;9683;49.028;12.064;2023-07-22T10:15:59;97241.53;;;22.06
19102;BMP280;9683;49.028;12.064;2023-07-22T10:18:27;97237.34;;;22.13
19102;BMP280;9683;49.028;12.064;2023-07-22T10:20:54;97232.06;;;22.22
19102;BMP280;9683;49.028;12.064;2023-07-22T10:23:23;97237.88;;;22.29
19102;BMP280;9683;49.028;12.064;2023-07-22T10:25:52;97230.84;;;22.28
19102;BMP280;9683;49.028;12.064;2023-07-22T10:28:21;97239.28;;;22.40
19102;BMP280;9683;49.028;12.064;2023-07-22T10:30:49;97242.53;;;22.42
19102;BMP280;9683;49.028;12.064;2023-07-22T10:33:16;97237.59;;;22.44
19102;BMP280;9683;49.028;12.064;2023-07-22T10:35:43;97227.25;;;22.46
19102;BMP280;9683;49.028;12.064;2023-07-22T10:38:27;97234.78;;;22.49
19102;BMP280;9683;49.028;12.064;2023-07-22T10:40:54;97240.63;;;22.56
19102;BMP280;9683;49.028;12.064;2023-07-22T10:43:26;97223.44;;;22.61
19102;BMP280;9683;49.028;12.064;2023-07-22T10:45:55;97231.50;;;22.66
19102;BMP280;9683;49.028;12.064;2023-07-22T10:48:25;97220.28;;;22.72
19102;BMP280;9683;49.028;12.064;2023-07-22T10:50:53;97202.44;;;22.66
19102;BMP280;9683;49.028;12.064;2023-07-22T10:53:29;97222.78;;;22.82
19102;BMP280;9683;49.028;12.064;2023-07-22T10:56:07;97218.53;;;22.90
19102;BMP280;9683;49.028;12.064;2023-07-22T10:59:06;97215.72;;;22.95
19102;BMP280;9683;49.028;12.064;2023-07-22T11:01:37;97212.38;;;22.98
19102;BMP280;9683;49.028;12.064;2023-07-22T11:04:20;97204.16;;;23.03
19102;BMP280;9683;49.028;12.064;2023-07-22T11:06:55;97201.22;;;23.13
19102;BMP280;9683;49.028;12.064;2023-07-22T11:09:40;97207.53;;;23.22
19102;BMP280;9683;49.028;12.064;2023-07-22T11:12:12;97214.16;;;23.30
19102;BMP280;9683;49.028;12.064;2023-07-22T11:14:41;97199.34;;;23.36
19102;BMP280;9683;49.028;12.064;2023-07-22T11:17:11;97200.03;;;23.42
19102;BMP280;9683;49.028;12.064;2023-07-22T11:19:37;97194.53;;;23.47
19102;BMP280;9683;49.028;12.064;2023-07-22T11:22:05;97198.72;;;23.53
19102;BMP280;9683;49.028;12.064;2023-07-22T11:24:32;97191.88;;;23.55
19102;BMP280;9683;49.028;12.064;2023-07-22T11:27:02;97194.16;;;23.62
19102;BMP280;9683;49.028;12.064;2023-07-22T11:29:29;97187.59;;;23.63
19102;BMP280;9683;49.028;12.064;2023-07-22T11:31:58;97181.38;;;23.62
19102;BMP280;9683;49.028;12.064;2023-07-22T11:34:24;97186.56;;;23.72
19102;BMP280;9683;49.028;12.064;2023-07-22T11:36:52;97169.94;;;23.74
19102;BMP280;9683;49.028;12.064;2023-07-22T11:39:20;97172.03;;;23.77
19102;BMP280;9683;49.028;12.064;2023-07-22T11:41:48;97190.22;;;23.90
19102;BMP280;9683;49.028;12.064;2023-07-22T11:44:16;97180.63;;;23.93
19102;BMP280;9683;49.028;12.064;2023-07-22T11:46:52;97180.00;;;23.96
19102;BMP280;9683;49.028;12.064;2023-07-22T11:49:25;97161.06;;;23.91
19102;BMP280;9683;49.028;12.064;2023-07-22T11:51:54;97166.38;;;23.96
19102;BMP280;9683;49.028;12.064;2023-07-22T11:54:21;97168.81;;;23.97
19102;BMP280;9683;49.028;12.064;2023-07-22T11:56:47;97164.06;;;24.03
19102;BMP280;9683;49.028;12.064;2023-07-22T11:59:15;97161.50;;;24.06
19102;BMP280;9683;49.028;12.064;2023-07-22T12:01:44;97163.28;;;24.11
19102;BMP280;9683;49.028;12.064;2023-07-22T12:04:12;97149.81;;;24.06
19102;BMP280;9683;49.028;12.064;2023-07-22T12:06:41;97141.16;;;24.04
19102;BMP280;9683;49.028;12.064;2023-07-22T12:09:09;97153.25;;;24.20
19102;BMP280;9683;49.028;12.064;2023-07-22T12:11:36;97158.41;;;24.22
19102;BMP280;9683;49.028;12.064;2023-07-22T12:14:10;97156.34;;;24.27
19102;BMP280;9683;49.028;12.064;2023-07-22T12:16:37;97141.31;;;24.30
19102;BMP280;9683;49.028;12.064;2023-07-22T12:19:04;97145.50;;;24.36
19102;BMP280;9683;49.028;12.064;2023-07-22T12:21:31;97142.81;;;24.44
19102;BMP280;9683;49.028;12.064;2023-07-22T12:23:59;97141.22;;;24.52
19102;BMP280;9683;49.028;12.064;2023-07-22T12:26:26;97122.81;;;24.49
19102;BMP280;9683;49.028;12.064;2023-07-22T12:28:53;97126.97;;;24.55
19102;BMP280;9683;49.028;12.064;2023-07-22T12:31:20;97123.41;;;24.46
19102;BMP280;9683;49.028;12.064;2023-07-22T12:33:46;97121.84;;;24.45
19102;BMP280;9683;49.028;12.064;2023-07-22T12:36:13;97105.03;;;24.51
19102;BMP280;9683;49.028;12.064;2023-07-22T12:38:39;97108.75;;;24.64
19102;BMP280;9683;49.028;12.064;2023-07-22T12:41:07;97123.50;;;24.80
19102;BMP280;9683;49.028;12.064;2023-07-22T12:43:34;97110.75;;;24.89
19102;BMP280;9683;49.028;12.064;2023-07-22T12:46:00;97105.16;;;25.03
19102;BMP280;9683;49.028;12.064;2023-07-22T12:48:27;97117.50;;;25.18
19102;BMP280;9683;49.028;12.064;2023-07-22T12:50:54;97107.69;;;25.34
19102;BMP280;9683;49.028;12.064;2023-07-22T12:53:21;97111.72;;;25.45
19102;BMP280;9683;49.028;12.064;2023-07-22T12:55:47;97100.84;;;25.53
19102;BMP280;9683;49.028;12.064;2023-07-22T12:58:15;97099.53;;;25.60
19102;BMP280;9683;49.028;12.064;2023-07-22T13:00:42;97101.44;;;25.59
19102;BMP280;9683;49.028;12.064;2023-07-22T13:03:08;97087.03;;;25.67
19102;BMP280;9683;49.028;12.064;2023-07-22T13:05:35;97079.09;;;25.83
19102;BMP280;9683;49.028;12.064;2023-07-22T13:08:01;97086.75;;;25.98
19102;BMP280;9683;49.028;12.064;2023-07-22T13:10:28;97085.59;;;26.08
19102;BMP280;9683;49.028;12.064;2023-07-22T13:12:55;97090.38;;;26.11
19102;BMP280;9683;49.028;12.064;2023-07-22T13:15:23;97082.16;;;26.19
19102;BMP280;9683;49.028;12.064;2023-07-22T13:17:50;97085.22;;;26.26
19102;BMP280;9683;49.028;12.064;2023-07-22T13:20:16;97072.47;;;26.39
19102;BMP280;9683;49.028;12.064;2023-07-22T13:22:43;97041.03;;;26.33
19102;BMP280;9683;49.028;12.064;2023-07-22T13:25:09;97071.00;;;26.41
19102;BMP280;9683;49.028;12.064;2023-07-22T13:27:36;97076.44;;;26.50
19102;BMP280;9683;49.028;12.064;2023-07-22T13:30:07;97073.66;;;26.59
19102;BMP280;9683;49.028;12.064;2023-07-22T13:32:35;97072.25;;;26.73
19102;BMP280;9683;49.028;12.064;2023-07-22T13:35:01;97066.13;;;26.85
19102;BMP280;9683;49.028;12.064;2023-07-22T13:37:29;97069.03;;;27.01
19102;BMP280;9683;49.028;12.064;2023-07-22T13:39:55;97071.03;;;27.12
19102;BMP280;9683;49.028;12.064;2023-07-22T13:42:23;97062.63;;;27.17
19102;BMP280;9683;49.028;12.064;2023-07-22T13:44:50;97071.75;;;27.21
19102;BMP280;9683;49.028;12.064;2023-07-22T13:47:16;97066.53;;;27.28
19102;BMP280;9683;49.028;12.064;2023-07-22T13:49:44;97057.13;;;27.38
19102;BMP280;9683;49.028;12.064;2023-07-22T13:52:11;97081.81;;;27.50
19102;BMP280;9683;49.028;12.064;2023-07-22T13:54:37;97079.13;;;27.42
19102;BMP280;9683;49.028;12.064;2023-07-22T13:57:04;97072.66;;;27.46
19102;BMP280;9683;49.028;12.064;2023-07-22T13:59:31;97075.59;;;27.41
19102;BMP280;9683;49.028;12.064;2023-07-22T14:01:58;97068.84;;;27.06
19102;BMP280;9683;49.028;12.064;2023-07-22T14:04:24;97065.78;;;26.78
19102;BMP280;9683;49.028;12.064;2023-07-22T14:06:52;97051.13;;;26.62
19102;BMP280;9683;49.028;12.064;2023-07-22T14:09:19;97064.53;;;26.75
19102;BMP280;9683;49.028;12.064;2023-07-22T14:11:45;97061.91;;;26.87